createdAt,value
2018-05-12T04:10:10.126Z,1084
2018-05-12T04:10:35.643Z,1100
2018-05-12T04:11:01.678Z,1116
2018-05-12T04:11:27.073Z,1136
2018-05-12T04:11:52.529Z,1156
2018-05-12T04:12:18.057Z,1176
2018-05-12T04:12:43.579Z,1196
2018-05-12T04:13:09.117Z,1216
2018-05-12T04:13:34.545Z,1236
2018-05-12T04:14:00.061Z,1260
2018-05-12T04:14:25.622Z,1276
2018-05-12T04:14:51.669Z,1300
2018-05-12T04:15:16.591Z,1320
2018-05-12T04:15:42.226Z,1344
2018-05-12T04:16:07.650Z,1360
2018-05-12T04:16:33.244Z,1384
2018-05-12T04:16:58.824Z,1400
2018-05-12T04:17:24.271Z,1420
2018-05-12T04:17:49.749Z,1444
2018-05-12T04:18:15.212Z,1460
2018-05-12T04:18:40.750Z,1484
2018-05-12T04:19:06.383Z,1504
2018-05-12T04:19:31.922Z,1524
2018-05-12T04:19:57.457Z,1548
2018-05-12T04:20:23.197Z,1568
2018-05-12T04:20:48.652Z,1588
2018-05-12T04:21:14.168Z,1612
2018-05-12T04:21:39.639Z,1632
2018-05-12T04:22:05.104Z,1656
2018-05-12T04:22:30.561Z,1676
2018-05-12T04:22:56.122Z,1700
2018-05-12T04:23:21.584Z,1724
2018-05-12T04:23:47.247Z,1748
2018-05-12T04:24:12.990Z,1772
2018-05-12T04:24:38.369Z,1792
2018-05-12T04:25:03.871Z,1816
2018-05-12T04:25:29.557Z,1840
2018-05-12T04:25:55.112Z,1864
2018-05-12T04:26:20.581Z,1888
2018-05-12T04:26:46.059Z,1912
2018-05-12T04:27:11.674Z,1940
2018-05-12T04:27:39.412Z,1968
2018-05-12T04:28:14.216Z,2004
2018-05-12T04:28:49.482Z,2044
2018-05-12T04:29:17.302Z,2076
2018-05-12T04:30:04.575Z,2120
2018-05-12T04:39:36.402Z,2964
2018-05-12T04:40:03.329Z,2992
2018-05-12T04:40:28.942Z,3020
2018-05-12T04:40:54.427Z,3052
2018-05-12T04:41:20.039Z,3080
2018-05-12T04:41:45.538Z,3104
2018-05-12T04:42:11.171Z,3136
2018-05-12T04:42:36.626Z,3168
2018-05-12T04:43:02.239Z,3204
2018-05-12T04:43:27.842Z,3224
2018-05-12T04:43:53.339Z,3244
2018-05-12T04:44:18.874Z,3272
2018-05-12T04:51:10.005Z,3692
2018-05-12T04:51:35.658Z,3704
2018-05-12T04:52:02.333Z,3728
2018-05-12T04:52:27.640Z,3760
2018-05-12T04:52:53.411Z,3796
2018-05-12T05:04:09.277Z,4900
2018-05-12T05:04:37.514Z,4940
2018-05-12T05:05:04.404Z,4980
2018-05-12T05:06:12.336Z,5072
2018-05-12T05:06:38.943Z,5100
2018-05-12T05:07:05.093Z,5124
2018-05-12T05:07:37.318Z,5176
2018-05-12T05:09:00.055Z,5304
2018-05-12T05:09:33.319Z,5344
2018-05-12T05:10:00.485Z,5376
2018-05-12T05:10:26.265Z,5404
2018-05-12T05:10:52.810Z,5432
2018-05-12T05:11:18.780Z,5452
2018-05-12T05:11:44.448Z,5472
2018-05-12T05:12:10.339Z,5492
2018-05-12T05:12:36.258Z,5512
2018-05-12T05:13:01.913Z,5560
2018-05-12T05:13:29.242Z,5604
2018-05-12T05:13:54.551Z,5640
2018-05-12T05:14:20.541Z,5664
2018-05-12T05:14:46.517Z,5688
2018-05-12T05:15:12.472Z,5716
2018-05-12T05:15:38.032Z,5732
2018-05-12T05:16:04.037Z,5760
2018-05-12T05:16:29.954Z,5768
2018-05-12T05:16:55.769Z,5768
2018-05-12T05:17:20.929Z,5784
2018-05-12T05:17:47.239Z,5792
2018-05-12T05:18:13.012Z,5840
2018-05-12T05:18:38.653Z,5872
2018-05-12T05:19:04.621Z,5896
2018-05-12T05:19:31.079Z,5928
2018-05-12T05:19:57.267Z,5964
2018-05-12T05:20:26.742Z,6004
2018-05-12T05:20:59.246Z,6056
2018-05-12T05:21:25.261Z,6092
2018-05-12T05:21:51.277Z,6124
2018-05-12T05:22:21.317Z,6136
2018-05-12T05:26:54.599Z,6548
2018-05-12T05:27:19.867Z,6556
2018-05-12T05:33:42.075Z,7064
2018-05-12T05:35:41.096Z,7172
2018-05-12T05:36:47.251Z,7148
2018-05-12T05:37:14.205Z,7192
2018-05-12T05:37:42.459Z,7244
2018-05-12T05:42:41.255Z,7796
2018-05-12T05:48:52.748Z,8180
2018-05-12T05:49:18.682Z,8232
2018-05-12T05:49:45.014Z,8292
2018-05-12T05:50:15.004Z,8308
2018-05-12T05:50:40.786Z,8288
2018-05-12T05:51:07.039Z,8304
2018-05-12T05:53:31.386Z,8864
2018-05-12T05:53:56.983Z,8924
2018-05-12T05:54:23.205Z,8896
2018-05-12T05:54:54.587Z,8836
2018-05-12T05:55:20.474Z,8832
2018-05-12T05:58:26.157Z,8892
2018-05-12T05:58:51.912Z,8608
2018-05-12T06:02:11.196Z,9432
2018-05-12T06:02:40.675Z,9816
2018-05-12T06:05:09.070Z,11956
2018-05-12T06:05:34.633Z,12992
2018-05-12T06:06:00.900Z,14248
2018-05-12T06:06:41.631Z,16800
2018-05-12T06:07:22.887Z,18240
2018-05-12T06:07:48.718Z,17984
2018-05-12T06:08:14.633Z,17152
2018-05-12T06:08:42.034Z,16448
2018-05-12T06:09:07.091Z,17216
2018-05-12T06:09:32.693Z,17600
2018-05-12T06:09:58.644Z,17728
2018-05-12T06:12:28.951Z,16864
2018-05-12T06:12:54.460Z,16704
2018-05-12T06:13:20.265Z,16544
2018-05-12T06:13:45.703Z,16064
2018-05-12T06:14:13.216Z,14816
2018-05-12T06:14:38.617Z,13844
2018-05-12T06:15:04.044Z,12912
2018-05-12T06:15:29.616Z,12404
2018-05-12T06:15:55.113Z,12192
2018-05-12T06:16:20.563Z,12124
2018-05-12T06:16:46.178Z,11832
2018-05-12T06:17:11.625Z,11492
2018-05-12T06:17:37.067Z,11280
2018-05-12T06:18:02.591Z,10620
2018-05-12T06:18:27.979Z,10736
2018-05-12T06:18:53.486Z,12524
2018-05-12T06:19:18.969Z,14120
2018-05-12T06:19:44.432Z,16160
2018-05-12T06:20:09.907Z,17600
2018-05-12T06:20:35.333Z,19712
2018-05-12T06:21:00.847Z,20896
2018-05-12T06:21:26.303Z,21344
2018-05-12T06:21:51.736Z,21152
2018-05-12T06:22:17.215Z,21184
2018-05-12T06:22:42.688Z,21120
2018-05-12T06:23:08.279Z,21312
2018-05-12T06:23:34.019Z,21024
2018-05-12T06:23:59.516Z,20480
2018-05-12T06:24:24.995Z,20576
2018-05-12T06:24:50.490Z,20480
2018-05-12T06:25:15.974Z,19488
2018-05-12T06:25:41.436Z,20320
2018-05-12T06:26:06.983Z,20704
2018-05-12T06:26:32.420Z,21280
2018-05-12T06:26:57.882Z,21888
2018-05-12T06:27:23.431Z,22016
2018-05-12T06:27:49.005Z,20416
2018-05-12T06:28:14.344Z,19520
2018-05-12T06:28:39.798Z,18144
2018-05-12T06:29:05.302Z,15456
2018-05-12T06:29:30.788Z,12300
2018-05-12T06:29:56.336Z,10472
2018-05-12T06:30:21.845Z,9908
2018-05-12T06:30:47.329Z,9660
2018-05-12T06:31:12.796Z,9556
2018-05-12T06:31:38.221Z,9484
2018-05-12T06:32:04.103Z,9412
2018-05-12T06:32:29.542Z,9380
2018-05-12T06:32:55.097Z,9304
2018-05-12T06:33:20.532Z,9108
2018-05-12T06:33:46.028Z,9020
2018-05-12T06:34:11.489Z,8956
2018-05-12T06:34:36.980Z,8848
2018-05-12T06:35:02.489Z,8704
2018-05-12T06:35:27.966Z,8636
2018-05-12T06:35:53.585Z,8396
2018-05-12T06:36:19.040Z,8020
2018-05-12T06:36:44.540Z,8048
2018-05-12T06:37:09.965Z,8068
2018-05-12T06:37:35.431Z,8092
2018-05-12T06:38:01.002Z,8252
2018-05-12T06:38:26.376Z,8440
2018-05-12T06:38:52.340Z,8556
2018-05-12T06:39:17.953Z,8612
2018-05-12T06:39:43.528Z,8712
2018-05-12T06:40:09.174Z,8824
2018-05-12T06:40:35.314Z,8864
2018-05-12T06:41:00.830Z,8976
2018-05-12T06:41:26.253Z,9064
2018-05-12T06:41:51.773Z,9088
2018-05-12T06:42:17.247Z,9196
2018-05-12T06:42:42.739Z,9284
2018-05-12T06:43:08.949Z,9404
2018-05-12T06:43:34.612Z,9428
2018-05-12T06:44:00.112Z,9516
2018-05-12T06:44:25.783Z,9612
2018-05-12T06:44:51.315Z,9628
2018-05-12T06:45:16.809Z,9676
2018-05-12T06:45:42.281Z,9812
2018-05-12T06:46:07.761Z,9896
2018-05-12T06:46:33.239Z,9916
2018-05-12T06:46:58.738Z,9916
2018-05-12T06:47:24.221Z,9928
2018-05-12T06:47:49.659Z,9924
2018-05-12T06:48:15.161Z,9912
2018-05-12T06:48:40.666Z,9856
2018-05-12T06:49:06.118Z,9756
2018-05-12T06:49:31.576Z,9728
2018-05-12T06:49:57.073Z,9628
2018-05-12T06:50:22.552Z,9444
2018-05-12T06:50:48.008Z,9348
2018-05-12T06:51:13.499Z,9580
2018-05-12T06:51:38.941Z,9720
2018-05-12T06:52:04.460Z,9784
2018-05-12T06:52:29.853Z,9744
2018-05-12T06:52:55.435Z,9688
2018-05-12T06:53:20.788Z,9668
2018-05-12T06:53:46.223Z,9756
2018-05-12T06:54:11.733Z,9932
2018-05-12T06:54:37.181Z,10100
2018-05-12T06:55:02.718Z,10372
2018-05-12T06:55:28.246Z,10128
2018-05-12T06:55:53.679Z,10108
2018-05-12T06:56:19.154Z,10068
2018-05-12T06:56:44.659Z,10256
2018-05-12T06:57:10.161Z,10204
2018-05-12T06:57:35.559Z,10268
2018-05-12T06:58:01.083Z,10660
2018-05-12T06:58:26.520Z,10696
2018-05-12T06:58:52.134Z,11252
2018-05-12T06:59:17.605Z,12596
2018-05-12T06:59:43.133Z,14572
2018-05-12T07:00:08.605Z,16224
2018-05-12T07:00:34.028Z,19936
2018-05-12T07:00:59.487Z,23296
2018-05-12T07:01:25.038Z,24768
2018-05-12T07:01:50.454Z,26944
2018-05-12T07:02:15.944Z,28256
2018-05-12T07:02:41.421Z,27008
2018-05-12T07:03:06.859Z,28960
2018-05-12T07:03:32.314Z,29536
2018-05-12T07:03:57.823Z,29376
2018-05-12T07:04:23.303Z,29248
2018-05-12T07:04:48.767Z,30720
2018-05-12T07:05:14.303Z,30912
2018-05-12T07:05:39.756Z,31104
2018-05-12T07:06:05.258Z,30016
2018-05-12T07:06:30.754Z,31328
2018-05-12T07:06:56.215Z,32320
2018-05-12T07:07:21.638Z,31008
2018-05-12T07:07:47.150Z,32672
2018-05-12T07:08:12.619Z,30752
2018-05-12T07:08:38.088Z,27232
2018-05-12T07:09:03.567Z,23296
2018-05-12T07:09:29.020Z,25024
2018-05-12T07:09:54.516Z,28992
2018-05-12T07:10:19.977Z,29792
2018-05-12T07:10:45.409Z,30464
2018-05-12T07:11:10.967Z,29664
2018-05-12T07:11:36.413Z,29312
2018-05-12T07:12:01.866Z,29696
2018-05-12T07:12:27.487Z,28768
2018-05-12T07:12:52.884Z,28224
2018-05-12T07:13:18.386Z,27488
2018-05-12T07:13:43.904Z,27648
2018-05-12T07:14:09.397Z,27392
2018-05-12T07:14:34.838Z,26848
2018-05-12T07:15:00.274Z,26144
2018-05-12T07:15:25.852Z,26368
2018-05-12T07:15:51.280Z,27072
2018-05-12T07:16:16.784Z,27712
2018-05-12T07:16:42.237Z,27392
2018-05-12T07:17:07.699Z,26816
2018-05-12T07:17:33.166Z,26208
2018-05-12T07:17:58.671Z,26304
2018-05-12T07:18:24.110Z,25344
2018-05-12T07:18:49.623Z,24576
2018-05-12T07:19:15.060Z,22976
2018-05-12T07:19:40.560Z,22400
2018-05-12T07:20:06.110Z,20096
2018-05-12T07:20:31.648Z,19168
2018-05-12T07:20:57.090Z,17568
2018-05-12T07:21:22.506Z,15808
2018-05-12T07:21:47.993Z,14272
2018-05-12T07:22:13.538Z,12904
2018-05-12T07:22:39.069Z,11884
2018-05-12T07:23:04.551Z,11128
2018-05-12T07:23:30.055Z,10852
2018-05-12T07:23:55.501Z,10708
2018-05-12T07:24:20.988Z,10620
2018-05-12T07:24:46.449Z,10624
2018-05-12T07:25:11.968Z,10788
2018-05-12T07:25:37.441Z,10872
2018-05-12T07:26:02.907Z,10924
2018-05-12T07:26:28.340Z,11120
2018-05-12T07:26:53.821Z,11444
2018-05-12T07:27:19.291Z,11632
2018-05-12T07:27:44.816Z,12060
2018-05-12T07:28:10.294Z,12980
2018-05-12T07:28:35.731Z,14876
2018-05-12T07:29:01.198Z,19488
2018-05-12T07:29:26.735Z,25376
2018-05-12T07:29:52.157Z,30432
2018-05-12T07:30:17.656Z,36544
2018-05-12T07:30:43.139Z,41952
2018-05-12T07:31:08.649Z,45312
2018-05-12T07:31:34.094Z,48544
2018-05-12T07:31:59.525Z,48512
2018-05-12T07:32:25.074Z,47072
2018-05-12T07:32:50.481Z,50144
2018-05-12T07:33:15.969Z,49632
2018-05-12T07:33:41.424Z,49792
2018-05-12T07:34:06.870Z,50368
2018-05-12T07:34:32.406Z,52000
2018-05-12T07:34:57.905Z,51712
2018-05-12T07:35:23.322Z,51616
2018-05-12T07:35:48.897Z,51072
2018-05-12T07:36:14.389Z,49856
2018-05-12T07:36:39.843Z,49376
2018-05-12T07:37:05.325Z,43392
2018-05-12T07:37:30.873Z,37760
2018-05-12T07:37:56.351Z,30240
2018-05-12T07:38:21.856Z,23456
2018-05-12T07:38:47.349Z,18176
2018-05-12T07:39:12.767Z,14724
2018-05-12T07:39:38.211Z,13052
2018-05-12T07:40:03.693Z,12320
2018-05-12T07:40:29.212Z,11596
2018-05-12T07:40:54.654Z,11064
2018-05-12T07:41:20.151Z,10724
2018-05-12T07:41:45.639Z,10512
2018-05-12T07:42:11.118Z,10348
2018-05-12T07:42:36.582Z,10248
2018-05-12T07:43:02.095Z,10244
2018-05-12T07:43:27.576Z,10204
2018-05-12T07:43:53.053Z,10164
2018-05-12T07:44:18.548Z,10160
2018-05-12T07:44:43.999Z,10180
2018-05-12T07:45:09.509Z,10204
2018-05-12T07:45:34.997Z,10076
2018-05-12T07:46:00.440Z,9956
2018-05-12T07:46:25.902Z,9952
2018-05-12T07:46:51.357Z,9948
2018-05-12T07:47:16.832Z,9932
2018-05-12T07:47:42.280Z,9836
2018-05-12T07:48:07.804Z,9828
2018-05-12T07:48:33.259Z,9844
2018-05-12T07:48:58.675Z,9924
2018-05-12T07:49:24.151Z,9988
2018-05-12T07:49:49.567Z,10060
2018-05-12T07:50:15.079Z,10068
2018-05-12T07:50:40.479Z,10100
2018-05-12T07:51:05.980Z,10176
2018-05-12T07:51:31.569Z,10160
2018-05-12T07:51:56.945Z,10136
2018-05-12T07:52:22.422Z,10184
2018-05-12T07:52:47.943Z,10196
2018-05-12T07:53:13.402Z,10124
2018-05-12T07:53:38.830Z,10052
2018-05-12T07:54:04.317Z,10076
2018-05-12T07:54:29.785Z,10052
2018-05-12T07:54:55.339Z,10008
2018-05-12T07:55:20.753Z,9984
2018-05-12T07:55:46.215Z,9972
2018-05-12T07:56:11.740Z,9964
2018-05-12T07:56:37.204Z,9936
2018-05-12T07:57:02.706Z,9908
2018-05-12T07:57:28.213Z,9856
2018-05-12T07:57:53.715Z,9832
2018-05-12T07:58:19.207Z,9796
2018-05-12T07:58:44.697Z,9736
2018-05-12T07:59:10.128Z,9568
2018-05-12T07:59:35.629Z,9412
2018-05-12T08:00:01.053Z,9504
2018-05-12T08:00:26.559Z,9484
2018-05-12T08:00:52.079Z,9428
2018-05-12T08:01:17.552Z,9332
2018-05-12T08:01:43.080Z,9228
2018-05-12T08:02:08.537Z,9048
2018-05-12T08:02:34.005Z,8960
2018-05-12T08:02:59.454Z,8908
2018-05-12T08:03:24.933Z,8864
2018-05-12T08:03:50.398Z,8836
2018-05-12T08:04:15.917Z,8792
2018-05-12T08:04:41.341Z,8776
2018-05-12T08:05:06.850Z,8728
2018-05-12T08:05:32.303Z,8696
2018-05-12T08:05:57.790Z,8652
2018-05-12T08:06:23.284Z,8616
2018-05-12T08:06:48.766Z,8588
2018-05-12T08:07:14.170Z,8548
2018-05-12T08:07:39.661Z,8500
2018-05-12T08:08:05.267Z,8448
2018-05-12T08:08:30.644Z,8416
2018-05-12T08:08:56.199Z,8392
2018-05-12T08:09:21.717Z,8352
2018-05-12T08:09:47.249Z,8300
2018-05-12T08:10:12.638Z,8232
2018-05-12T08:10:38.157Z,8176
2018-05-12T08:11:03.747Z,8136
2018-05-12T08:11:29.231Z,8096
2018-05-12T08:11:54.846Z,8068
2018-05-12T08:12:20.309Z,7948
2018-05-12T08:12:45.915Z,7852
2018-05-12T08:13:11.399Z,7920
2018-05-12T08:13:36.860Z,7888
2018-05-12T08:14:02.336Z,7876
2018-05-12T08:14:27.824Z,7872
2018-05-12T08:14:53.382Z,7844
2018-05-12T08:15:18.896Z,7812
2018-05-12T08:15:44.348Z,7784
2018-05-12T08:16:09.912Z,7756
2018-05-12T08:16:35.486Z,7736
2018-05-12T08:17:00.923Z,7712
2018-05-12T08:17:26.571Z,7680
2018-05-12T08:17:52.008Z,7652
2018-05-12T08:18:17.512Z,7632
2018-05-12T08:18:43.154Z,7604
2018-05-12T08:19:08.709Z,7588
2018-05-12T08:19:34.132Z,7556
2018-05-12T08:19:59.643Z,7540
2018-05-12T08:20:25.158Z,7516
2018-05-12T08:20:50.745Z,7492
2018-05-12T08:21:16.279Z,7452
2018-05-12T08:21:41.769Z,7424
2018-05-12T08:22:07.201Z,7388
2018-05-12T08:22:32.750Z,7340
2018-05-12T08:22:58.195Z,7340
2018-05-12T08:23:23.672Z,7320
2018-05-12T08:23:49.147Z,7300
2018-05-12T08:24:14.606Z,7280
2018-05-12T08:24:40.074Z,7264
2018-05-12T08:25:05.548Z,7248
2018-05-12T08:25:31.044Z,7236
2018-05-12T08:25:56.511Z,7212
2018-05-12T08:26:22.037Z,7204
2018-05-12T08:26:47.478Z,7208
2018-05-12T08:27:12.925Z,7204
2018-05-12T08:27:38.430Z,7200
2018-05-12T08:28:03.887Z,7188
2018-05-12T08:28:29.358Z,7192
2018-05-12T08:28:54.855Z,7184
2018-05-12T08:29:20.343Z,7188
2018-05-12T08:29:45.904Z,7172
2018-05-12T08:30:11.353Z,7160
2018-05-12T08:30:36.834Z,7152
2018-05-12T08:31:02.359Z,7148
2018-05-12T08:31:27.889Z,7140
2018-05-12T08:31:53.424Z,7128
2018-05-12T08:32:18.883Z,7104
2018-05-12T08:32:44.383Z,7084
2018-05-12T08:33:09.910Z,7052
2018-05-12T08:33:35.383Z,7044
2018-05-12T08:34:00.828Z,7028
2018-05-12T08:34:26.302Z,7012
2018-05-12T08:34:51.759Z,7000
2018-05-12T08:35:17.213Z,6984
2018-05-12T08:35:42.700Z,6964
2018-05-12T08:36:08.178Z,6948
2018-05-12T08:36:33.632Z,6952
2018-05-12T08:36:59.079Z,6952
2018-05-12T08:37:24.554Z,6956
2018-05-12T08:37:50.018Z,6952
2018-05-12T08:38:15.504Z,6956
2018-05-12T08:38:40.945Z,6948
2018-05-12T08:39:06.397Z,6940
2018-05-12T08:39:31.908Z,6924
2018-05-12T08:39:57.378Z,6904
2018-05-12T08:40:22.923Z,6912
2018-05-12T08:40:48.293Z,6916
2018-05-12T08:41:13.756Z,6912
2018-05-12T08:41:39.255Z,6908
2018-05-12T08:42:04.713Z,6892
2018-05-12T08:42:30.173Z,6888
2018-05-12T08:42:55.678Z,6860
2018-05-12T08:43:21.991Z,6844
2018-05-12T08:43:47.776Z,6828
2018-05-12T08:44:13.335Z,6812
2018-05-12T08:44:39.046Z,6804
2018-05-12T08:45:04.706Z,6804
2018-05-12T08:45:30.176Z,6804
2018-05-12T08:45:55.720Z,6808
2018-05-12T08:46:21.215Z,6820
2018-05-12T08:46:46.718Z,6832
2018-05-12T08:47:12.182Z,6840
2018-05-12T08:47:37.884Z,6856
2018-05-12T08:48:03.601Z,6848
2018-05-12T08:48:28.966Z,6844
2018-05-12T08:49:02.479Z,6828
2018-05-12T08:49:27.875Z,6808
2018-05-12T08:49:53.309Z,6784
2018-05-12T08:50:19.111Z,6756
2018-05-12T08:50:44.623Z,6708
2018-05-12T08:51:10.292Z,6672
2018-05-12T08:51:35.737Z,6660
2018-05-12T08:52:01.589Z,6656
2018-05-12T08:52:27.291Z,6648
2018-05-12T08:52:52.774Z,6652
2018-05-12T08:53:18.631Z,6656
2018-05-12T08:53:44.993Z,6672
2018-05-12T08:54:12.238Z,6684
2018-05-12T08:54:38.313Z,6704
2018-05-12T08:55:04.009Z,6720
2018-05-12T08:55:32.360Z,6732
2018-05-12T08:55:58.473Z,6740
2018-05-12T08:56:24.142Z,6732
2018-05-12T08:56:49.725Z,6724
2018-05-12T08:57:15.142Z,6688
2018-05-12T08:57:40.971Z,6648
2018-05-12T08:58:06.525Z,6536
2018-05-12T08:58:32.007Z,6564
2018-05-12T08:58:57.584Z,6536
2018-05-12T08:59:23.138Z,6492
2018-05-12T08:59:48.608Z,6396
2018-05-12T09:00:14.124Z,6412
2018-05-12T09:00:39.656Z,6448
2018-05-12T09:01:05.096Z,6464
2018-05-12T09:01:30.599Z,6484
2018-05-12T09:01:56.790Z,6532
2018-05-12T09:02:22.230Z,6564
2018-05-12T09:02:47.721Z,6592
2018-05-12T09:03:13.211Z,6624
2018-05-12T09:03:38.681Z,6680
2018-05-12T09:04:04.140Z,6736
2018-05-12T09:04:29.687Z,6760
2018-05-12T09:04:55.189Z,6780
2018-05-12T09:05:20.701Z,6824
2018-05-12T09:05:46.093Z,6876
2018-05-12T09:06:11.578Z,6896
2018-05-12T09:06:37.064Z,6916
2018-05-12T09:07:02.514Z,6920
2018-05-12T09:07:27.974Z,6928
2018-05-12T09:07:53.518Z,6920
2018-05-12T09:08:18.978Z,6904
2018-05-12T09:08:44.409Z,6880
2018-05-12T09:09:09.881Z,6860
2018-05-12T09:09:35.425Z,6832
2018-05-12T09:10:00.884Z,6828
2018-05-12T09:10:26.345Z,6816
2018-05-12T09:10:51.828Z,6808
2018-05-12T09:11:17.317Z,6788
2018-05-12T09:11:42.804Z,6788
2018-05-12T09:12:08.272Z,6764
2018-05-12T09:12:33.745Z,6728
2018-05-12T09:12:59.322Z,6704
2018-05-12T09:13:24.703Z,6688
2018-05-12T09:13:50.192Z,6672
2018-05-12T09:14:15.665Z,6640
2018-05-12T09:14:41.164Z,6596
2018-05-12T09:15:06.623Z,6572
2018-05-12T09:15:32.078Z,6556
2018-05-12T09:15:57.590Z,6540
2018-05-12T09:16:23.040Z,6524
2018-05-12T09:16:48.510Z,6512
2018-05-12T09:17:14.068Z,6516
2018-05-12T09:17:39.476Z,6528
2018-05-12T09:18:04.954Z,6536
2018-05-12T09:18:30.403Z,6552
2018-05-12T09:18:55.925Z,6532
2018-05-12T09:19:21.414Z,6552
2018-05-12T09:19:46.886Z,6540
2018-05-12T09:20:12.321Z,6580
2018-05-12T09:20:37.823Z,6532
2018-05-12T09:21:03.329Z,6568
2018-05-12T09:21:29.007Z,6388
2018-05-12T09:21:54.401Z,6236
2018-05-12T09:22:19.961Z,6248
2018-05-12T09:22:45.351Z,6192
2018-05-12T09:23:10.829Z,6128
2018-05-12T09:23:36.295Z,6068
2018-05-12T09:24:01.776Z,6028
2018-05-12T09:24:27.237Z,6084
2018-05-12T09:24:52.722Z,6196
2018-05-12T09:25:18.156Z,6264
2018-05-12T09:25:43.635Z,6412
2018-05-12T09:26:09.106Z,6480
2018-05-12T09:26:34.577Z,6564
2018-05-12T09:27:00.062Z,6624
2018-05-12T09:27:25.581Z,6696
2018-05-12T09:27:51.056Z,6744
2018-05-12T09:28:16.538Z,6812
2018-05-12T09:28:42.140Z,6900
2018-05-12T09:29:07.541Z,6988
2018-05-12T09:29:32.999Z,7048
2018-05-12T09:29:58.524Z,7132
2018-05-12T09:30:24.022Z,7160
2018-05-12T09:30:49.535Z,7152
2018-05-12T09:31:14.996Z,7216
2018-05-12T09:31:40.578Z,7272
2018-05-12T09:32:06.024Z,7284
2018-05-12T09:32:31.521Z,7340
2018-05-12T09:32:57.018Z,7296
2018-05-12T09:33:22.546Z,7280
2018-05-12T09:33:47.969Z,7252
2018-05-12T09:34:13.497Z,7264
2018-05-12T09:34:38.979Z,7220
2018-05-12T09:35:04.454Z,7192
2018-05-12T09:35:29.948Z,7132
2018-05-12T09:35:55.444Z,7152
2018-05-12T09:36:20.923Z,7136
2018-05-12T09:36:46.404Z,7132
2018-05-12T09:37:11.891Z,7124
2018-05-12T09:37:37.379Z,7120
2018-05-12T09:38:02.832Z,7076
2018-05-12T09:38:28.312Z,7068
2018-05-12T09:38:53.867Z,7048
2018-05-12T09:39:19.307Z,7024
2018-05-12T09:39:44.776Z,7044
2018-05-12T09:40:10.216Z,7052
2018-05-12T09:40:35.741Z,7064
2018-05-12T09:41:01.256Z,7116
2018-05-12T09:41:26.686Z,7156
2018-05-12T09:41:52.172Z,7180
2018-05-12T09:42:17.685Z,7064
2018-05-12T09:42:43.126Z,6856
2018-05-12T09:43:08.629Z,6692
2018-05-12T09:43:34.087Z,6584
2018-05-12T09:43:59.566Z,6584
2018-05-12T09:44:25.168Z,6600
2018-05-12T09:44:50.610Z,6620
2018-05-12T09:45:16.028Z,6584
2018-05-12T09:45:41.505Z,6496
2018-05-12T09:46:07.043Z,6424
2018-05-12T09:46:32.491Z,6440
2018-05-12T09:46:57.915Z,6648
2018-05-12T09:47:23.418Z,6884
2018-05-12T09:47:48.868Z,7080
2018-05-12T09:48:14.333Z,7244
2018-05-12T09:48:39.825Z,7392
2018-05-12T09:49:05.281Z,7456
2018-05-12T09:49:30.778Z,7488
2018-05-12T09:49:56.209Z,7468
2018-05-12T09:50:21.696Z,7432
2018-05-12T09:50:47.255Z,7364
2018-05-12T09:51:12.724Z,7292
2018-05-12T09:51:38.209Z,7252
2018-05-12T09:52:03.641Z,7208
2018-05-12T09:52:29.141Z,7164
2018-05-12T09:52:54.573Z,7128
2018-05-12T09:53:20.078Z,7052
2018-05-12T09:53:45.556Z,7004
2018-05-12T09:54:11.028Z,6940
2018-05-12T09:54:36.486Z,6908
2018-05-12T09:55:01.973Z,6960
2018-05-12T09:55:27.471Z,7012
2018-05-12T09:55:52.916Z,7028
2018-05-12T09:56:18.356Z,7056
2018-05-12T09:56:43.876Z,7044
2018-05-12T09:57:09.329Z,7008
2018-05-12T09:57:34.812Z,6928
2018-05-12T09:58:43.508Z,6708
2018-05-12T09:59:09.003Z,6632
2018-05-12T09:59:34.483Z,6596
2018-05-12T09:59:59.941Z,6528
2018-05-12T10:00:25.401Z,6384
2018-05-12T10:00:50.931Z,6264
2018-05-12T10:01:16.528Z,6156
2018-05-12T10:01:41.863Z,6072
2018-05-12T10:02:07.330Z,5976
2018-05-12T10:02:32.777Z,5940
2018-05-12T10:02:58.297Z,5876
2018-05-12T10:03:23.790Z,5856
2018-05-12T10:03:49.297Z,5748
2018-05-12T10:04:14.884Z,5652
2018-05-12T10:04:41.273Z,5512
2018-05-12T10:05:06.863Z,5468
2018-05-12T10:05:32.604Z,5620
2018-05-12T10:05:58.286Z,5492
2018-05-12T10:06:23.963Z,5972
2018-05-12T10:06:49.471Z,6096
2018-05-12T10:07:15.020Z,6140
2018-05-12T10:07:40.776Z,6144
2018-05-12T10:08:06.777Z,6192
2018-05-12T10:08:32.262Z,6180
2018-05-12T10:08:57.888Z,6184
2018-05-12T10:09:23.363Z,6216
2018-05-12T10:09:48.904Z,6228
2018-05-12T10:10:14.432Z,6252
2018-05-12T10:10:39.987Z,6280
2018-05-12T10:11:05.660Z,6332
2018-05-12T10:11:31.115Z,6408
2018-05-12T10:11:56.589Z,6444
2018-05-12T10:12:22.278Z,6472
2018-05-12T10:12:47.706Z,6596
2018-05-12T10:13:13.167Z,6760
2018-05-12T10:13:38.764Z,6936
2018-05-12T10:14:04.321Z,7020
2018-05-12T10:14:29.842Z,7056
2018-05-12T10:14:55.512Z,7076
2018-05-12T10:15:21.131Z,7224
2018-05-12T10:15:46.684Z,7412
2018-05-12T10:16:12.227Z,7740
2018-05-12T10:16:37.945Z,8040
2018-05-12T10:17:03.376Z,8248
2018-05-12T10:17:28.807Z,8380
2018-05-12T10:17:54.330Z,8428
2018-05-12T10:18:19.787Z,8428
2018-05-12T10:18:45.286Z,8444
2018-05-12T10:19:10.789Z,8432
2018-05-12T10:19:36.323Z,8136
2018-05-12T10:20:01.880Z,8052
2018-05-12T10:20:27.327Z,7804
2018-05-12T10:20:52.771Z,7568
2018-05-12T10:21:18.259Z,7380
2018-05-12T10:21:43.836Z,7128
2018-05-12T10:22:09.274Z,6968
2018-05-12T10:22:34.706Z,6928
2018-05-12T10:23:00.327Z,6792
2018-05-12T10:23:25.729Z,6700
2018-05-12T10:23:51.139Z,6764
2018-05-12T10:24:16.701Z,6884
2018-05-12T10:24:42.196Z,7000
2018-05-12T10:25:07.668Z,7128
2018-05-12T10:25:33.127Z,7172
2018-05-12T10:25:58.652Z,7268
2018-05-12T10:26:24.119Z,7476
2018-05-12T10:26:49.576Z,7748
2018-05-12T10:27:15.088Z,8060
2018-05-12T10:27:40.628Z,8184
2018-05-12T10:28:06.102Z,8444
2018-05-12T10:28:31.588Z,8824
2018-05-12T10:28:57.191Z,9016
2018-05-12T10:29:22.728Z,9196
2018-05-12T10:29:48.160Z,9364
2018-05-12T10:30:13.663Z,9476
2018-05-12T10:30:39.158Z,9484
2018-05-12T10:31:04.744Z,9412
2018-05-12T10:31:30.220Z,9304
2018-05-12T10:31:55.779Z,9060
2018-05-12T10:32:21.181Z,8768
2018-05-12T10:32:46.697Z,8396
2018-05-12T10:33:12.176Z,8060
2018-05-12T10:33:37.652Z,7804
2018-05-12T10:34:03.178Z,7612
2018-05-12T10:34:28.652Z,7540
2018-05-12T10:34:54.099Z,7468
2018-05-12T10:35:19.701Z,7520
2018-05-12T10:35:45.173Z,7524
2018-05-12T10:36:10.666Z,7428
2018-05-12T10:36:36.186Z,7332
2018-05-12T10:37:01.638Z,7188
2018-05-12T10:37:27.121Z,6976
2018-05-12T10:37:52.670Z,6784
2018-05-12T10:38:18.198Z,6672
2018-05-12T10:38:43.658Z,6572
2018-05-12T10:39:09.131Z,6264
2018-05-12T10:39:34.830Z,6192
2018-05-12T10:40:00.061Z,6080
2018-05-12T10:40:25.639Z,6028
2018-05-12T10:40:51.095Z,5980
2018-05-12T10:41:16.580Z,5904
2018-05-12T10:41:42.010Z,5860
2018-05-12T10:42:07.604Z,5804
2018-05-12T10:42:33.033Z,5788
2018-05-12T10:42:58.485Z,5796
2018-05-12T10:43:23.990Z,5796
2018-05-12T10:43:49.468Z,5844
2018-05-12T10:44:14.913Z,5848
2018-05-12T10:44:40.457Z,5844
2018-05-12T10:45:05.949Z,5856
2018-05-12T10:45:31.419Z,5856
2018-05-12T10:45:57.163Z,5872
2018-05-12T10:46:22.652Z,5920
2018-05-12T10:46:48.278Z,6012
2018-05-12T10:47:13.878Z,6096
2018-05-12T10:47:39.250Z,6244
2018-05-12T10:48:04.788Z,6472
2018-05-12T10:48:30.307Z,6668
2018-05-12T10:48:55.770Z,6796
2018-05-12T10:49:21.493Z,6868
2018-05-12T10:49:51.515Z,6916
2018-05-12T10:50:18.631Z,6952
2018-05-12T10:50:44.258Z,6952
2018-05-12T10:51:10.314Z,6992
2018-05-12T10:51:56.184Z,7208
2018-05-12T10:52:22.141Z,7452
2018-05-12T10:52:47.442Z,7628
2018-05-12T10:53:12.939Z,7708